sensor_id;sensor_type;location;lat;lon;timestamp;temperature;humidity
2282;DHT22;27486;48.77806476;9.16920056;2022-10-18T00:00:12;16.40;99.90
2282;DHT22;27486;48.77806476;9.16920056;2022-10-18T00:02:56;16.40;99.90
2282;DHT22;27486;48.77806476;9.16920056;2022-10-18T00:05:40;16.50;99.90
2282;DHT22;27486;48.77806476;9.16920056;2022-10-18T00:08:24;16.50;99.90
2282;DHT22;27486;48.77806476;9.16920056;2022-10-18T00:11:08;16.40;99.90
2282;DHT22;27486;48.77806476;9.16920056;2022-10-18T00:13:55;16.40;99.90
2282;DHT22;27486;48.77806476;9.16920056;2022-10-18T00:16:39;16.40;99.90
2282;DHT22;27486;48.77806476;9.16920056;2022-10-18T00:19:23;16.40;99.90
2282;DHT22;27486;48.77806476;9.16920056;2022-10-18T00:22:07;16.40;99.90
2282;DHT22;27486;48.77806476;9.16920056;2022-10-18T00:24:51;16.40;99.90
2282;DHT22;27486;48.77806476;9.16920056;2022-10-18T00:27:36;16.40;99.90
2282;DHT22;27486;48.77806476;9.16920056;2022-10-18T00:30:19;16.40;99.90
2282;DHT22;27486;48.77806476;9.16920056;2022-10-18T00:33:03;16.40;99.90
2282;DHT22;27486;48.77806476;9.16920056;2022-10-18T00:35:48;16.40;99.90
2282;DHT22;27486;48.77806476;9.16920056;2022-10-18T00:38:32;16.40;99.90
2282;DHT22;27486;48.77806476;9.16920056;2022-10-18T00:41:19;16.30;99.90
2282;DHT22;27486;48.77806476;9.16920056;2022-10-18T00:47:00;16.40;99.90
2282;DHT22;27486;48.77806476;9.16920056;2022-10-18T00:49:48;16.40;99.90
2282;DHT22;27486;48.77806476;9.16920056;2022-10-18T00:52:38;16.40;99.90
2282;DHT22;27486;48.77806476;9.16920056;2022-10-18T00:55:25;16.50;99.90
2282;DHT22;27486;48.77806476;9.16920056;2022-10-18T00:58:12;16.60;99.90
2282;DHT22;27486;48.77806476;9.16920056;2022-10-18T01:00:57;16.70;99.90
2282;DHT22;27486;48.77806476;9.16920056;2022-10-18T01:03:41;16.80;99.90
2282;DHT22;27486;48.77806476;9.16920056;2022-10-18T01:06:26;16.90;99.90
2282;DHT22;27486;48.77806476;9.16920056;2022-10-18T01:09:17;16.90;99.90
2282;DHT22;27486;48.77806476;9.16920056;2022-10-18T01:15:18;17.00;99.90
2282;DHT22;27486;48.77806476;9.16920056;2022-10-18T01:21:30;17.20;99.90
2282;DHT22;27486;48.77806476;9.16920056;2022-10-18T01:25:02;17.30;99.90
2282;DHT22;27486;48.77806476;9.16920056;2022-10-18T01:28:03;17.30;99.90
2282;DHT22;27486;48.77806476;9.16920056;2022-10-18T01:30:59;17.40;99.90
2282;DHT22;27486;48.77806476;9.16920056;2022-10-18T01:33:53;17.50;99.90
2282;DHT22;27486;48.77806476;9.16920056;2022-10-18T01:36:46;17.60;99.90
2282;DHT22;27486;48.77806476;9.16920056;2022-10-18T01:39:37;17.70;99.90
2282;DHT22;27486;48.77806476;9.16920056;2022-10-18T01:42:23;17.80;99.90
2282;DHT22;27486;48.77806476;9.16920056;2022-10-18T01:45:08;17.80;99.90
2282;DHT22;27486;48.77806476;9.16920056;2022-10-18T01:47:54;17.90;99.90
2282;DHT22;27486;48.77806476;9.16920056;2022-10-18T01:50:38;17.90;99.90
2282;DHT22;27486;48.77806476;9.16920056;2022-10-18T01:53:40;17.90;99.90
2282;DHT22;27486;48.77806476;9.16920056;2022-10-18T02:05:47;18.00;99.90
2282;DHT22;27486;48.77806476;9.16920056;2022-10-18T02:08:39;18.00;99.90
2282;DHT22;27486;48.77806476;9.16920056;2022-10-18T02:11:26;18.00;99.90
2282;DHT22;27486;48.77806476;9.16920056;2022-10-18T02:14:13;18.10;99.60
2282;DHT22;27486;48.77806476;9.16920056;2022-10-18T02:17:03;18.10;99.30
2282;DHT22;27486;48.77806476;9.16920056;2022-10-18T02:19:52;18.20;98.90
2282;DHT22;27486;48.77806476;9.16920056;2022-10-18T02:22:38;18.20;98.80
2282;DHT22;27486;48.77806476;9.16920056;2022-10-18T02:25:28;18.30;98.40
2282;DHT22;27486;48.77806476;9.16920056;2022-10-18T02:28:13;18.30;98.00
2282;DHT22;27486;48.77806476;9.16920056;2022-10-18T02:34:18;18.40;97.70
2282;DHT22;27486;48.77806476;9.16920056;2022-10-18T02:37:04;18.40;97.40
2282;DHT22;27486;48.77806476;9.16920056;2022-10-18T02:39:49;18.50;97.20
2282;DHT22;27486;48.77806476;9.16920056;2022-10-18T02:42:43;18.50;97.10
2282;DHT22;27486;48.77806476;9.16920056;2022-10-18T02:45:27;18.50;96.90
2282;DHT22;27486;48.77806476;9.16920056;2022-10-18T02:48:11;18.50;96.90
2282;DHT22;27486;48.77806476;9.16920056;2022-10-18T02:50:55;18.60;96.80
2282;DHT22;27486;48.77806476;9.16920056;2022-10-18T02:53:39;18.70;96.50
2282;DHT22;27486;48.77806476;9.16920056;2022-10-18T02:56:23;18.70;96.20
2282;DHT22;27486;48.77806476;9.16920056;2022-10-18T02:59:07;18.70;96.50
2282;DHT22;27486;48.77806476;9.16920056;2022-10-18T03:01:51;18.70;96.40
2282;DHT22;27486;48.77806476;9.16920056;2022-10-18T03:04:35;18.70;96.20
2282;DHT22;27486;48.77806476;9.16920056;2022-10-18T03:07:19;18.70;96.00
2282;DHT22;27486;48.77806476;9.16920056;2022-10-18T03:10:03;18.60;96.30
2282;DHT22;27486;48.77806476;9.16920056;2022-10-18T03:12:48;18.60;96.90
2282;DHT22;27486;48.77806476;9.16920056;2022-10-18T03:15:32;18.60;96.80
2282;DHT22;27486;48.77806476;9.16920056;2022-10-18T03:18:16;18.50;97.00
2282;DHT22;27486;48.77806476;9.16920056;2022-10-18T03:21:04;18.50;97.20
2282;DHT22;27486;48.77806476;9.16920056;2022-10-18T03:23:48;18.50;97.30
2282;DHT22;27486;48.77806476;9.16920056;2022-10-18T03:26:32;18.50;97.30
2282;DHT22;27486;48.77806476;9.16920056;2022-10-18T03:29:16;18.50;97.50
2282;DHT22;27486;48.77806476;9.16920056;2022-10-18T03:32:00;18.40;97.30
2282;DHT22;27486;48.77806476;9.16920056;2022-10-18T03:34:44;18.40;97.30
2282;DHT22;27486;48.77806476;9.16920056;2022-10-18T03:37:29;18.30;97.30
2282;DHT22;27486;48.77806476;9.16920056;2022-10-18T03:40:13;18.40;97.20
2282;DHT22;27486;48.77806476;9.16920056;2022-10-18T03:42:57;18.30;97.00
2282;DHT22;27486;48.77806476;9.16920056;2022-10-18T03:45:41;18.30;96.90
2282;DHT22;27486;48.77806476;9.16920056;2022-10-18T03:48:26;18.30;96.80
2282;DHT22;27486;48.77806476;9.16920056;2022-10-18T03:51:10;18.20;96.70
2282;DHT22;27486;48.77806476;9.16920056;2022-10-18T03:53:53;18.10;96.90
2282;DHT22;27486;48.77806476;9.16920056;2022-10-18T03:56:37;18.20;96.80
2282;DHT22;27486;48.77806476;9.16920056;2022-10-18T03:59:21;18.10;96.70
2282;DHT22;27486;48.77806476;9.16920056;2022-10-18T04:02:05;18.10;96.90
2282;DHT22;27486;48.77806476;9.16920056;2022-10-18T04:04:50;18.00;96.90
2282;DHT22;27486;48.77806476;9.16920056;2022-10-18T04:07:35;17.90;97.00
2282;DHT22;27486;48.77806476;9.16920056;2022-10-18T04:10:19;17.90;97.20
2282;DHT22;27486;48.77806476;9.16920056;2022-10-18T04:13:04;17.90;97.20
2282;DHT22;27486;48.77806476;9.16920056;2022-10-18T04:15:48;17.80;97.30
2282;DHT22;27486;48.77806476;9.16920056;2022-10-18T04:18:32;17.70;97.30
2282;DHT22;27486;48.77806476;9.16920056;2022-10-18T04:21:16;17.70;97.40
2282;DHT22;27486;48.77806476;9.16920056;2022-10-18T04:24:00;17.70;97.60
2282;DHT22;27486;48.77806476;9.16920056;2022-10-18T04:26:44;17.70;97.70
2282;DHT22;27486;48.77806476;9.16920056;2022-10-18T04:29:29;17.70;97.80
2282;DHT22;27486;48.77806476;9.16920056;2022-10-18T04:32:13;17.70;97.80
2282;DHT22;27486;48.77806476;9.16920056;2022-10-18T04:34:57;17.70;97.80
2282;DHT22;27486;48.77806476;9.16920056;2022-10-18T04:37:41;17.80;97.70
2282;DHT22;27486;48.77806476;9.16920056;2022-10-18T04:40:25;17.80;97.80
2282;DHT22;27486;48.77806476;9.16920056;2022-10-18T04:43:09;17.80;98.10
2282;DHT22;27486;48.77806476;9.16920056;2022-10-18T04:45:53;17.80;97.60
2282;DHT22;27486;48.77806476;9.16920056;2022-10-18T04:48:37;17.80;97.70
2282;DHT22;27486;48.77806476;9.16920056;2022-10-18T04:51:21;17.80;97.50
2282;DHT22;27486;48.77806476;9.16920056;2022-10-18T04:54:05;17.80;97.50
2282;DHT22;27486;48.77806476;9.16920056;2022-10-18T04:56:49;18.00;97.30
2282;DHT22;27486;48.77806476;9.16920056;2022-10-18T04:59:33;18.00;97.10
2282;DHT22;27486;48.77806476;9.16920056;2022-10-18T05:02:17;18.00;97.00
2282;DHT22;27486;48.77806476;9.16920056;2022-10-18T05:05:01;18.10;96.90
2282;DHT22;27486;48.77806476;9.16920056;2022-10-18T05:07:45;18.20;96.60
2282;DHT22;27486;48.77806476;9.16920056;2022-10-18T05:10:29;18.20;96.40
2282;DHT22;27486;48.77806476;9.16920056;2022-10-18T05:13:13;18.40;96.20
2282;DHT22;27486;48.77806476;9.16920056;2022-10-18T05:15:57;18.60;95.70
2282;DHT22;27486;48.77806476;9.16920056;2022-10-18T05:18:43;18.70;95.60
2282;DHT22;27486;48.77806476;9.16920056;2022-10-18T05:21:27;18.80;95.20
2282;DHT22;27486;48.77806476;9.16920056;2022-10-18T05:24:11;18.90;95.00
2282;DHT22;27486;48.77806476;9.16920056;2022-10-18T05:26:55;19.00;95.00
2282;DHT22;27486;48.77806476;9.16920056;2022-10-18T05:29:39;19.00;94.90
2282;DHT22;27486;48.77806476;9.16920056;2022-10-18T05:32:23;18.90;94.90
2282;DHT22;27486;48.77806476;9.16920056;2022-10-18T05:35:07;18.80;94.90
2282;DHT22;27486;48.77806476;9.16920056;2022-10-18T05:37:51;18.80;95.10
2282;DHT22;27486;48.77806476;9.16920056;2022-10-18T05:40:37;18.80;95.10
2282;DHT22;27486;48.77806476;9.16920056;2022-10-18T05:43:22;18.70;95.20
2282;DHT22;27486;48.77806476;9.16920056;2022-10-18T05:46:06;18.70;95.20
2282;DHT22;27486;48.77806476;9.16920056;2022-10-18T05:48:51;18.60;95.30
2282;DHT22;27486;48.77806476;9.16920056;2022-10-18T05:51:35;18.60;95.40
2282;DHT22;27486;48.77806476;9.16920056;2022-10-18T05:54:19;18.60;95.50
2282;DHT22;27486;48.77806476;9.16920056;2022-10-18T05:57:03;18.50;95.50
2282;DHT22;27486;48.77806476;9.16920056;2022-10-18T05:59:47;18.50;95.80
2282;DHT22;27486;48.77806476;9.16920056;2022-10-18T06:02:31;18.50;95.80
2282;DHT22;27486;48.77806476;9.16920056;2022-10-18T06:05:15;18.50;95.70
2282;DHT22;27486;48.77806476;9.16920056;2022-10-18T06:07:59;18.50;95.60
2282;DHT22;27486;48.77806476;9.16920056;2022-10-18T06:10:43;18.50;95.60
2282;DHT22;27486;48.77806476;9.16920056;2022-10-18T06:13:27;18.60;95.70
2282;DHT22;27486;48.77806476;9.16920056;2022-10-18T06:16:12;18.50;95.60
2282;DHT22;27486;48.77806476;9.16920056;2022-10-18T06:18:57;18.50;95.50
2282;DHT22;27486;48.77806476;9.16920056;2022-10-18T06:21:43;18.70;95.50
2282;DHT22;27486;48.77806476;9.16920056;2022-10-18T06:24:27;18.80;95.20
2282;DHT22;27486;48.77806476;9.16920056;2022-10-18T06:27:11;19.00;95.00
2282;DHT22;27486;48.77806476;9.16920056;2022-10-18T06:29:55;19.20;94.90
2282;DHT22;27486;48.77806476;9.16920056;2022-10-18T06:32:39;19.40;94.70
2282;DHT22;27486;48.77806476;9.16920056;2022-10-18T06:35:22;19.60;94.40
2282;DHT22;27486;48.77806476;9.16920056;2022-10-18T06:38:06;19.80;93.90
2282;DHT22;27486;48.77806476;9.16920056;2022-10-18T06:40:51;20.00;93.50
2282;DHT22;27486;48.77806476;9.16920056;2022-10-18T06:43:35;20.10;93.10
2282;DHT22;27486;48.77806476;9.16920056;2022-10-18T06:46:19;20.10;92.80
2282;DHT22;27486;48.77806476;9.16920056;2022-10-18T06:49:03;20.30;92.80
2282;DHT22;27486;48.77806476;9.16920056;2022-10-18T06:51:47;20.30;92.50
2282;DHT22;27486;48.77806476;9.16920056;2022-10-18T06:54:31;20.40;92.40
2282;DHT22;27486;48.77806476;9.16920056;2022-10-18T06:57:15;20.50;92.30
2282;DHT22;27486;48.77806476;9.16920056;2022-10-18T06:59:59;20.40;92.00
2282;DHT22;27486;48.77806476;9.16920056;2022-10-18T07:02:43;20.40;92.00
2282;DHT22;27486;48.77806476;9.16920056;2022-10-18T07:05:27;20.50;91.80
2282;DHT22;27486;48.77806476;9.16920056;2022-10-18T07:08:11;20.60;91.70
2282;DHT22;27486;48.77806476;9.16920056;2022-10-18T07:10:55;20.70;91.60
2282;DHT22;27486;48.77806476;9.16920056;2022-10-18T07:13:39;20.70;91.50
2282;DHT22;27486;48.77806476;9.16920056;2022-10-18T07:16:23;20.70;91.40
2282;DHT22;27486;48.77806476;9.16920056;2022-10-18T07:19:07;20.80;91.30
2282;DHT22;27486;48.77806476;9.16920056;2022-10-18T07:21:51;20.80;90.90
2282;DHT22;27486;48.77806476;9.16920056;2022-10-18T07:24:35;20.80;90.70
2282;DHT22;27486;48.77806476;9.16920056;2022-10-18T07:27:19;20.90;90.60
2282;DHT22;27486;48.77806476;9.16920056;2022-10-18T07:30:06;20.80;90.40
2282;DHT22;27486;48.77806476;9.16920056;2022-10-18T07:32:50;20.80;90.70
2282;DHT22;27486;48.77806476;9.16920056;2022-10-18T07:35:34;20.90;90.20
2282;DHT22;27486;48.77806476;9.16920056;2022-10-18T07:38:18;21.10;90.20
2282;DHT22;27486;48.77806476;9.16920056;2022-10-18T07:41:04;21.10;89.90
2282;DHT22;27486;48.77806476;9.16920056;2022-10-18T07:43:50;21.30;89.60
2282;DHT22;27486;48.77806476;9.16920056;2022-10-18T07:46:35;21.50;88.70
2282;DHT22;27486;48.77806476;9.16920056;2022-10-18T07:49:19;21.60;87.70
2282;DHT22;27486;48.77806476;9.16920056;2022-10-18T07:52:03;21.80;87.70
2282;DHT22;27486;48.77806476;9.16920056;2022-10-18T07:54:47;22.10;87.30
2282;DHT22;27486;48.77806476;9.16920056;2022-10-18T07:57:31;22.40;86.40
2282;DHT22;27486;48.77806476;9.16920056;2022-10-18T08:00:15;22.60;85.40
2282;DHT22;27486;48.77806476;9.16920056;2022-10-18T08:02:59;22.70;85.00
2282;DHT22;27486;48.77806476;9.16920056;2022-10-18T08:05:43;22.80;84.50
2282;DHT22;27486;48.77806476;9.16920056;2022-10-18T08:08:28;23.00;83.70
2282;DHT22;27486;48.77806476;9.16920056;2022-10-18T08:11:14;23.10;82.90
2282;DHT22;27486;48.77806476;9.16920056;2022-10-18T08:13:59;23.10;82.60
2282;DHT22;27486;48.77806476;9.16920056;2022-10-18T08:16:43;23.10;81.40
2282;DHT22;27486;48.77806476;9.16920056;2022-10-18T08:19:27;23.10;81.60
2282;DHT22;27486;48.77806476;9.16920056;2022-10-18T08:22:11;23.10;80.70
2282;DHT22;27486;48.77806476;9.16920056;2022-10-18T08:24:55;23.10;80.00
2282;DHT22;27486;48.77806476;9.16920056;2022-10-18T08:27:39;23.10;80.50
2282;DHT22;27486;48.77806476;9.16920056;2022-10-18T08:30:23;23.00;80.10
2282;DHT22;27486;48.77806476;9.16920056;2022-10-18T08:33:07;23.20;80.20
2282;DHT22;27486;48.77806476;9.16920056;2022-10-18T08:35:58;23.20;79.90
2282;DHT22;27486;48.77806476;9.16920056;2022-10-18T08:38:43;23.10;79.40
2282;DHT22;27486;48.77806476;9.16920056;2022-10-18T08:44:24;23.00;80.10
2282;DHT22;27486;48.77806476;9.16920056;2022-10-18T08:47:16;23.00;79.90
2282;DHT22;27486;48.77806476;9.16920056;2022-10-18T08:50:13;23.30;80.50
2282;DHT22;27486;48.77806476;9.16920056;2022-10-18T08:53:12;23.40;78.80
2282;DHT22;27486;48.77806476;9.16920056;2022-10-18T08:56:04;23.50;78.50
2282;DHT22;27486;48.77806476;9.16920056;2022-10-18T08:58:48;23.50;78.10
2282;DHT22;27486;48.77806476;9.16920056;2022-10-18T09:04:56;23.50;78.50
2282;DHT22;27486;48.77806476;9.16920056;2022-10-18T09:11:01;23.40;78.20
2282;DHT22;27486;48.77806476;9.16920056;2022-10-18T09:17:09;23.40;78.10
2282;DHT22;27486;48.77806476;9.16920056;2022-10-18T09:20:20;23.60;78.40
2282;DHT22;27486;48.77806476;9.16920056;2022-10-18T09:23:18;23.50;77.60
2282;DHT22;27486;48.77806476;9.16920056;2022-10-18T09:26:16;23.50;77.60
2282;DHT22;27486;48.77806476;9.16920056;2022-10-18T09:29:27;23.50;77.60
2282;DHT22;27486;48.77806476;9.16920056;2022-10-18T09:32:37;23.70;77.60
2282;DHT22;27486;48.77806476;9.16920056;2022-10-18T09:35:29;24.10;76.60
2282;DHT22;27486;48.77806476;9.16920056;2022-10-18T09:38:18;24.50;74.90
2282;DHT22;27486;48.77806476;9.16920056;2022-10-18T09:41:09;24.70;75.00
2282;DHT22;27486;48.77806476;9.16920056;2022-10-18T09:43:57;24.40;76.70
2282;DHT22;27486;48.77806476;9.16920056;2022-10-18T09:46:50;23.60;77.80
2282;DHT22;27486;48.77806476;9.16920056;2022-10-18T09:49:41;23.00;79.70
2282;DHT22;27486;48.77806476;9.16920056;2022-10-18T09:52:33;22.70;81.00
2282;DHT22;27486;48.77806476;9.16920056;2022-10-18T09:55:26;22.50;82.40
2282;DHT22;27486;48.77806476;9.16920056;2022-10-18T09:58:14;22.20;83.20
2282;DHT22;27486;48.77806476;9.16920056;2022-10-18T10:01:00;21.90;84.60
2282;DHT22;27486;48.77806476;9.16920056;2022-10-18T10:03:44;21.70;85.10
2282;DHT22;27486;48.77806476;9.16920056;2022-10-18T10:06:30;21.50;85.80
2282;DHT22;27486;48.77806476;9.16920056;2022-10-18T10:09:16;21.60;87.00
2282;DHT22;27486;48.77806476;9.16920056;2022-10-18T10:12:01;21.70;86.80
2282;DHT22;27486;48.77806476;9.16920056;2022-10-18T10:14:45;21.80;86.50
2282;DHT22;27486;48.77806476;9.16920056;2022-10-18T10:17:30;21.80;86.40
2282;DHT22;27486;48.77806476;9.16920056;2022-10-18T10:21:03;22.00;86.20
2282;DHT22;27486;48.77806476;9.16920056;2022-10-18T10:23:31;22.30;86.30
2282;DHT22;27486;48.77806476;9.16920056;2022-10-18T10:26:30;22.50;85.40
2282;DHT22;27486;48.77806476;9.16920056;2022-10-18T10:29:47;22.60;84.70
2282;DHT22;27486;48.77806476;9.16920056;2022-10-18T10:32:44;22.70;84.00
2282;DHT22;27486;48.77806476;9.16920056;2022-10-18T10:38:23;22.90;83.40
2282;DHT22;27486;48.77806476;9.16920056;2022-10-18T10:41:19;23.00;83.30
2282;DHT22;27486;48.77806476;9.16920056;2022-10-18T10:44:04;23.30;82.80
2282;DHT22;27486;48.77806476;9.16920056;2022-10-18T10:46:57;23.50;81.90
2282;DHT22;27486;48.77806476;9.16920056;2022-10-18T10:49:45;23.60;81.40
2282;DHT22;27486;48.77806476;9.16920056;2022-10-18T10:52:29;23.60;80.50
2282;DHT22;27486;48.77806476;9.16920056;2022-10-18T10:55:19;23.60;80.30
2282;DHT22;27486;48.77806476;9.16920056;2022-10-18T10:58:13;23.80;79.40
2282;DHT22;27486;48.77806476;9.16920056;2022-10-18T11:01:25;23.80;78.90
2282;DHT22;27486;48.77806476;9.16920056;2022-10-18T11:04:28;24.00;78.20
2282;DHT22;27486;48.77806476;9.16920056;2022-10-18T11:07:24;24.10;78.10
2282;DHT22;27486;48.77806476;9.16920056;2022-10-18T11:16:32;24.50;77.40
2282;DHT22;27486;48.77806476;9.16920056;2022-10-18T11:20:02;24.80;77.00
2282;DHT22;27486;48.77806476;9.16920056;2022-10-18T11:22:58;25.00;76.10
2282;DHT22;27486;48.77806476;9.16920056;2022-10-18T11:32:08;25.50;74.00
2282;DHT22;27486;48.77806476;9.16920056;2022-10-18T11:35:20;25.60;73.20
2282;DHT22;27486;48.77806476;9.16920056;2022-10-18T11:41:17;25.80;72.30
2282;DHT22;27486;48.77806476;9.16920056;2022-10-18T11:44:12;26.00;70.90
2282;DHT22;27486;48.77806476;9.16920056;2022-10-18T11:47:12;26.20;70.40
2282;DHT22;27486;48.77806476;9.16920056;2022-10-18T11:50:05;26.30;69.90
2282;DHT22;27486;48.77806476;9.16920056;2022-10-18T11:56:18;26.50;69.40
2282;DHT22;27486;48.77806476;9.16920056;2022-10-18T11:59:28;26.80;68.50
2282;DHT22;27486;48.77806476;9.16920056;2022-10-18T12:02:40;26.90;67.10
2282;DHT22;27486;48.77806476;9.16920056;2022-10-18T12:05:31;26.90;66.50
2282;DHT22;27486;48.77806476;9.16920056;2022-10-18T12:08:20;26.90;66.70
2282;DHT22;27486;48.77806476;9.16920056;2022-10-18T12:11:29;27.00;66.80
2282;DHT22;27486;48.77806476;9.16920056;2022-10-18T12:14:23;27.20;66.20
2282;DHT22;27486;48.77806476;9.16920056;2022-10-18T12:17:19;27.10;65.40
2282;DHT22;27486;48.77806476;9.16920056;2022-10-18T12:20:16;27.20;65.20
2282;DHT22;27486;48.77806476;9.16920056;2022-10-18T12:26:13;27.10;65.30
2282;DHT22;27486;48.77806476;9.16920056;2022-10-18T12:29:04;26.60;64.80
2282;DHT22;27486;48.77806476;9.16920056;2022-10-18T12:31:53;25.90;66.80
2282;DHT22;27486;48.77806476;9.16920056;2022-10-18T12:34:53;25.20;69.10
2282;DHT22;27486;48.77806476;9.16920056;2022-10-18T12:37:47;24.70;71.90
2282;DHT22;27486;48.77806476;9.16920056;2022-10-18T12:40:39;24.20;73.80
2282;DHT22;27486;48.77806476;9.16920056;2022-10-18T12:43:26;23.80;75.70
2282;DHT22;27486;48.77806476;9.16920056;2022-10-18T12:46:15;23.60;75.80
2282;DHT22;27486;48.77806476;9.16920056;2022-10-18T12:49:02;23.30;76.80
2282;DHT22;27486;48.77806476;9.16920056;2022-10-18T12:51:53;23.10;77.10
2282;DHT22;27486;48.77806476;9.16920056;2022-10-18T12:54:38;22.90;78.00
2282;DHT22;27486;48.77806476;9.16920056;2022-10-18T12:57:22;22.90;77.60
2282;DHT22;27486;48.77806476;9.16920056;2022-10-18T13:06:01;22.60;83.70
2282;DHT22;27486;48.77806476;9.16920056;2022-10-18T13:08:45;22.50;86.10
2282;DHT22;27486;48.77806476;9.16920056;2022-10-18T13:11:32;22.40;87.40
2282;DHT22;27486;48.77806476;9.16920056;2022-10-18T13:14:37;22.50;87.60
2282;DHT22;27486;48.77806476;9.16920056;2022-10-18T13:17:43;22.60;87.40
2282;DHT22;27486;48.77806476;9.16920056;2022-10-18T13:20:39;22.80;87.00
2282;DHT22;27486;48.77806476;9.16920056;2022-10-18T13:26:54;23.00;85.30
2282;DHT22;27486;48.77806476;9.16920056;2022-10-18T13:33:36;23.00;82.50
2282;DHT22;27486;48.77806476;9.16920056;2022-10-18T13:36:23;22.90;80.50
2282;DHT22;27486;48.77806476;9.16920056;2022-10-18T13:39:18;22.70;82.20
2282;DHT22;27486;48.77806476;9.16920056;2022-10-18T13:44:47;22.80;81.60
2282;DHT22;27486;48.77806476;9.16920056;2022-10-18T13:47:36;22.80;81.70
2282;DHT22;27486;48.77806476;9.16920056;2022-10-18T13:50:33;22.80;81.20
2282;DHT22;27486;48.77806476;9.16920056;2022-10-18T13:53:45;22.80;81.60
2282;DHT22;27486;48.77806476;9.16920056;2022-10-18T14:09:13;23.20;82.10
2282;DHT22;27486;48.77806476;9.16920056;2022-10-18T14:12:07;23.00;84.70
2282;DHT22;27486;48.77806476;9.16920056;2022-10-18T14:15:16;22.80;86.00
2282;DHT22;27486;48.77806476;9.16920056;2022-10-18T14:18:17;22.70;86.70
2282;DHT22;27486;48.77806476;9.16920056;2022-10-18T14:21:07;22.60;87.50
2282;DHT22;27486;48.77806476;9.16920056;2022-10-18T14:23:54;22.40;87.40
2282;DHT22;27486;48.77806476;9.16920056;2022-10-18T14:26:38;22.40;89.10
2282;DHT22;27486;48.77806476;9.16920056;2022-10-18T14:29:21;22.60;89.60
2282;DHT22;27486;48.77806476;9.16920056;2022-10-18T14:32:16;22.60;89.60
2282;DHT22;27486;48.77806476;9.16920056;2022-10-18T14:35:03;22.70;89.70
2282;DHT22;27486;48.77806476;9.16920056;2022-10-18T14:37:49;22.60;89.30
2282;DHT22;27486;48.77806476;9.16920056;2022-10-18T14:40:38;22.50;89.80
2282;DHT22;27486;48.77806476;9.16920056;2022-10-18T14:43:23;22.50;89.90
2282;DHT22;27486;48.77806476;9.16920056;2022-10-18T14:46:21;22.40;90.00
2282;DHT22;27486;48.77806476;9.16920056;2022-10-18T14:49:10;22.40;90.00
2282;DHT22;27486;48.77806476;9.16920056;2022-10-18T14:51:57;22.50;90.10
2282;DHT22;27486;48.77806476;9.16920056;2022-10-18T14:54:42;22.60;90.00
2282;DHT22;27486;48.77806476;9.16920056;2022-10-18T14:57:29;22.60;90.00
2282;DHT22;27486;48.77806476;9.16920056;2022-10-18T15:00:33;22.70;90.00
2282;DHT22;27486;48.77806476;9.16920056;2022-10-18T15:03:17;22.80;89.70
2282;DHT22;27486;48.77806476;9.16920056;2022-10-18T15:06:03;22.80;89.50
2282;DHT22;27486;48.77806476;9.16920056;2022-10-18T15:08:53;22.90;89.30
2282;DHT22;27486;48.77806476;9.16920056;2022-10-18T15:11:39;22.90;89.00
2282;DHT22;27486;48.77806476;9.16920056;2022-10-18T15:14:26;22.80;89.10
2282;DHT22;27486;48.77806476;9.16920056;2022-10-18T15:17:19;22.80;89.00
2282;DHT22;27486;48.77806476;9.16920056;2022-10-18T15:20:23;22.80;88.90
2282;DHT22;27486;48.77806476;9.16920056;2022-10-18T15:26:07;22.50;90.20
2282;DHT22;27486;48.77806476;9.16920056;2022-10-18T15:28:52;22.40;90.50
2282;DHT22;27486;48.77806476;9.16920056;2022-10-18T15:31:40;22.30;90.50
2282;DHT22;27486;48.77806476;9.16920056;2022-10-18T15:34:26;22.30;90.80
2282;DHT22;27486;48.77806476;9.16920056;2022-10-18T15:46:29;22.30;91.20
2282;DHT22;27486;48.77806476;9.16920056;2022-10-18T15:54:50;22.40;90.80
2282;DHT22;27486;48.77806476;9.16920056;2022-10-18T15:57:34;22.20;91.10
2282;DHT22;27486;48.77806476;9.16920056;2022-10-18T16:00:19;22.10;91.40
2282;DHT22;27486;48.77806476;9.16920056;2022-10-18T16:03:03;22.10;91.60
2282;DHT22;27486;48.77806476;9.16920056;2022-10-18T16:06:12;22.30;91.20
2282;DHT22;27486;48.77806476;9.16920056;2022-10-18T16:08:56;22.20;91.20
2282;DHT22;27486;48.77806476;9.16920056;2022-10-18T16:11:40;22.20;91.30
2282;DHT22;27486;48.77806476;9.16920056;2022-10-18T16:14:24;22.20;91.40
2282;DHT22;27486;48.77806476;9.16920056;2022-10-18T16:17:10;22.00;91.50
2282;DHT22;27486;48.77806476;9.16920056;2022-10-18T16:19:59;21.80;91.70
2282;DHT22;27486;48.77806476;9.16920056;2022-10-18T16:22:43;21.80;91.90
2282;DHT22;27486;48.77806476;9.16920056;2022-10-18T16:25:27;21.60;92.20
2282;DHT22;27486;48.77806476;9.16920056;2022-10-18T16:28:13;21.50;92.60
2282;DHT22;27486;48.77806476;9.16920056;2022-10-18T16:31:00;21.50;92.70
2282;DHT22;27486;48.77806476;9.16920056;2022-10-18T16:33:44;21.50;93.10
2282;DHT22;27486;48.77806476;9.16920056;2022-10-18T16:36:30;21.40;92.90
2282;DHT22;27486;48.77806476;9.16920056;2022-10-18T16:39:17;21.20;93.30
2282;DHT22;27486;48.77806476;9.16920056;2022-10-18T16:42:02;21.10;93.50
2282;DHT22;27486;48.77806476;9.16920056;2022-10-18T16:44:46;21.00;93.80
2282;DHT22;27486;48.77806476;9.16920056;2022-10-18T16:47:32;20.90;94.00
2282;DHT22;27486;48.77806476;9.16920056;2022-10-18T16:50:18;20.80;94.30
2282;DHT22;27486;48.77806476;9.16920056;2022-10-18T16:53:03;20.70;94.60
2282;DHT22;27486;48.77806476;9.16920056;2022-10-18T16:55:53;20.60;95.00
2282;DHT22;27486;48.77806476;9.16920056;2022-10-18T16:58:38;20.60;95.10
2282;DHT22;27486;48.77806476;9.16920056;2022-10-18T17:01:23;20.70;95.10
2282;DHT22;27486;48.77806476;9.16920056;2022-10-18T17:04:07;20.60;95.20
2282;DHT22;27486;48.77806476;9.16920056;2022-10-18T17:06:53;20.70;95.20
2282;DHT22;27486;48.77806476;9.16920056;2022-10-18T17:09:40;20.60;95.30
2282;DHT22;27486;48.77806476;9.16920056;2022-10-18T17:12:24;20.70;95.30
2282;DHT22;27486;48.77806476;9.16920056;2022-10-18T17:15:08;20.70;95.20